Cross Plains, IN (47017)

10:34 PM EDT on July 24, 2016 (GMT -0400)
Cross Plains 1 | | Change Station

Elev 906 ft 38.94 °N, 85.21 °W | Updated 8 minutes ago

Scattered Clouds
Scattered Clouds
73.6 °F
Feels Like 71 °F
N
0.0
Wind Variable Wind from West

Today
High -- | Low -- °F
--% Chance of Precip.
Yesterday
High -- | Low -- °F
Precip. -- in
Pressure 29.95 in
Visibility 10.0 miles
Clouds Scattered Clouds 25000 ft
Heat Index 71 °F
Dew Point 71 °F
Humidity 91%
Rainfall 0.00 in
Snow Depth Not available.
6:35 AM 8:59 PM
Waning Gibbous, 71% visible
METAR KCVG 250152Z 21004KT 10SM SCT250 29/24 A2998 RMK AO2 SLP140 T02890239
Pressure 29.95 in
Visibility 10.0 miles
Clouds Scattered Clouds 25000 ft
Heat Index 71 °F
Dew Point 71 °F
Humidity 91%
Rainfall 0.00 in
Snow Depth Not available.
6:35 AM 8:59 PM
Waning Gibbous, 71% visible
METAR KCVG 250152Z 21004KT 10SM SCT250 29/24 A2998 RMK AO2 SLP140 T02890239

10-Day Weather Forecast

Almanac

Astronomy

Jul. 24, 2016 Rise Set
Actual Time
Civil Twilight
Nautical Twilight
Astronomical Twilight
Moon
Length of Visible Light
Length of Day
Tomorrow will be .
, % of the Moon is Illuminated

Today's Extremes

State Highs State Lows

Community

WunderPhotos

Upload Photos

1,927,243 photos uploaded!

WunderBlog® & News

Nearby

Air Quality

  Air Quality AQ Index Pollutant
Not available.

Snow Depth

Station Depth Elevation

Earthquake Activity

City Distance Mag. Time & Date
Minimum magnitude displayed is 2.5.

Coastal Water Temperatures

Place Temperature

Stations

Nearby Weather Stations

Station Location Temp. Windchill Dew Point Humidity Wind Precip. Elev Updated Type
                   

Watches & Warnings

There are currently no watches in effect.